createdAt,value
2022-10-09T00:00:26.679Z,9.33
2022-10-09T00:01:31.781Z,9.34
2022-10-09T00:02:34.936Z,9.32
2022-10-09T00:03:39.241Z,9.30
2022-10-09T00:04:45.355Z,9.28
2022-10-09T00:05:47.396Z,9.32
2022-10-09T00:06:50.368Z,9.28
2022-10-09T00:07:54.083Z,9.25
2022-10-09T00:08:57.592Z,9.28
2022-10-09T00:10:01.636Z,9.26
2022-10-09T00:11:12.815Z,9.27
2022-10-09T00:12:16.165Z,9.26
2022-10-09T00:13:19.559Z,9.29
2022-10-09T00:14:24.411Z,9.30
2022-10-09T00:15:27.497Z,9.29
2022-10-09T00:16:30.880Z,9.28
2022-10-09T00:17:33.466Z,9.24
2022-10-09T00:18:36.518Z,9.24
2022-10-09T00:19:38.600Z,9.24
2022-10-09T00:20:50.346Z,9.23
2022-10-09T00:21:56.578Z,9.19
2022-10-09T00:22:59.350Z,9.17
2022-10-09T00:24:03.691Z,9.16
2022-10-09T00:25:10.258Z,9.14
2022-10-09T00:26:13.197Z,9.10
2022-10-09T00:27:16.401Z,9.09
2022-10-09T00:28:22.500Z,9.12
2022-10-09T00:29:28.187Z,9.13
2022-10-09T00:30:33.129Z,9.12
2022-10-09T00:31:37.731Z,9.15
2022-10-09T00:32:42.587Z,9.14
2022-10-09T00:33:45.880Z,9.08
2022-10-09T00:34:48.935Z,9.03
2022-10-09T00:35:51.333Z,8.95
2022-10-09T00:37:13.314Z,8.94
2022-10-09T00:38:16.959Z,8.96
2022-10-09T00:39:20.308Z,8.96
2022-10-09T00:40:23.726Z,8.96
2022-10-09T00:41:29.182Z,8.98
2022-10-09T00:42:33.673Z,9.00
2022-10-09T00:43:44.383Z,9.02
2022-10-09T00:45:00.308Z,9.03
2022-10-09T00:46:03.933Z,9.04
2022-10-09T00:47:10.722Z,9.03
2022-10-09T00:48:14.685Z,9.05
2022-10-09T00:49:36.062Z,9.05
2022-10-09T00:50:50.018Z,9.09
2022-10-09T00:51:55.396Z,9.05
2022-10-09T00:53:01.922Z,9.02
2022-10-09T00:54:06.103Z,9.03
2022-10-09T00:55:08.730Z,9.04
2022-10-09T00:56:12.128Z,9.03
2022-10-09T00:57:16.055Z,9.03
2022-10-09T00:58:18.619Z,9.04
2022-10-09T00:59:22.855Z,9.05
2022-10-09T01:00:29.723Z,9.01
2022-10-09T01:01:35.880Z,8.96
2022-10-09T01:02:39.571Z,8.95
2022-10-09T01:03:43.351Z,8.93
2022-10-09T01:04:47.484Z,8.90
2022-10-09T01:06:10.874Z,8.95
2022-10-09T01:07:31.665Z,8.97
2022-10-09T01:08:36.070Z,8.98
2022-10-09T01:09:50.697Z,8.91
2022-10-09T01:11:03.813Z,8.87
2022-10-09T01:12:17.971Z,8.89
2022-10-09T01:13:28.776Z,8.88
2022-10-09T01:14:33.221Z,8.85
2022-10-09T01:16:41.287Z,8.89
2022-10-09T01:17:45.620Z,8.90
2022-10-09T01:18:54.878Z,8.87
2022-10-09T01:20:12.647Z,8.90
2022-10-09T01:21:20.897Z,8.89
2022-10-09T01:22:32.226Z,8.85
2022-10-09T01:23:47.225Z,8.84
2022-10-09T01:24:52.604Z,8.82
2022-10-09T01:26:01.803Z,8.80
2022-10-09T01:27:09.241Z,8.83
2022-10-09T01:28:13.841Z,8.86
2022-10-09T01:29:18.991Z,8.88
2022-10-09T01:30:22.352Z,8.88
2022-10-09T01:31:27.703Z,8.91
2022-10-09T01:32:35.939Z,8.90
2022-10-09T01:33:39.133Z,8.72
2022-10-09T01:34:43.479Z,8.60
2022-10-09T01:35:47.096Z,8.54
2022-10-09T01:36:52.092Z,8.50
2022-10-09T01:37:56.776Z,8.51
2022-10-09T01:39:01.042Z,8.57
2022-10-09T01:40:06.682Z,8.54
2022-10-09T01:41:16.387Z,8.48
2022-10-09T01:42:21.896Z,8.51
2022-10-09T01:43:24.787Z,8.51
2022-10-09T01:44:29.534Z,8.40
2022-10-09T01:45:41.408Z,8.44
2022-10-09T01:46:45.329Z,8.45
2022-10-09T01:47:49.449Z,8.44
2022-10-09T01:48:58.037Z,8.50
2022-10-09T01:50:18.651Z,8.54
2022-10-09T01:51:26.096Z,8.51
2022-10-09T01:52:42.024Z,8.55
2022-10-09T01:53:47.119Z,8.50
2022-10-09T01:54:52.792Z,8.51
2022-10-09T01:56:00.826Z,8.52
2022-10-09T01:57:05.898Z,8.49
2022-10-09T01:58:20.332Z,8.52
2022-10-09T01:59:26.865Z,8.46
2022-10-09T02:00:32.257Z,8.45
2022-10-09T02:01:36.310Z,8.44
2022-10-09T02:02:41.826Z,8.38
2022-10-09T02:03:46.305Z,8.35
2022-10-09T02:04:51.585Z,8.39
2022-10-09T02:05:56.150Z,8.43
2022-10-09T02:07:00.870Z,8.46
2022-10-09T02:08:03.358Z,8.55
2022-10-09T02:09:12.309Z,8.66
2022-10-09T02:10:17.269Z,8.70
2022-10-09T02:11:21.086Z,8.69
2022-10-09T02:12:26.161Z,8.70
2022-10-09T02:13:29.664Z,8.71
2022-10-09T02:14:33.895Z,8.73
2022-10-09T02:15:46.457Z,8.77
2022-10-09T02:16:51.983Z,8.76
2022-10-09T02:17:57.576Z,8.77
2022-10-09T02:19:08.810Z,8.77
2022-10-09T02:20:16.947Z,8.77
2022-10-09T02:21:24.802Z,8.74
2022-10-09T02:22:30.043Z,8.77
2022-10-09T02:23:34.841Z,8.77
2022-10-09T02:24:40.110Z,8.72
2022-10-09T02:25:48.282Z,8.72
2022-10-09T02:26:54.688Z,8.77
2022-10-09T02:27:57.948Z,8.73
2022-10-09T02:29:00.930Z,8.72
2022-10-09T02:30:07.435Z,8.72
2022-10-09T02:31:27.640Z,8.77
2022-10-09T02:32:30.234Z,8.72
2022-10-09T02:33:35.725Z,8.61
2022-10-09T02:34:39.063Z,8.56
2022-10-09T02:35:42.432Z,8.56
2022-10-09T02:36:47.426Z,8.55
2022-10-09T02:37:50.174Z,8.59
2022-10-09T02:38:55.634Z,8.59
2022-10-09T02:39:59.272Z,8.63
2022-10-09T02:41:01.827Z,8.63
2022-10-09T02:42:06.387Z,8.62
2022-10-09T02:43:09.984Z,8.62
2022-10-09T02:44:15.485Z,8.63
2022-10-09T02:45:19.662Z,8.66
2022-10-09T02:46:23.787Z,8.59
2022-10-09T02:47:29.032Z,8.54
2022-10-09T02:48:32.848Z,8.45
2022-10-09T02:49:37.219Z,8.40
2022-10-09T02:50:40.795Z,8.46
2022-10-09T02:51:43.469Z,8.47
2022-10-09T02:52:47.709Z,8.50
2022-10-09T02:53:55.181Z,8.56
2022-10-09T02:54:58.475Z,8.58
2022-10-09T02:56:02.187Z,8.57
2022-10-09T02:57:05.587Z,8.56
2022-10-09T02:58:08.976Z,8.59
2022-10-09T02:59:12.319Z,8.61
2022-10-09T03:00:19.705Z,8.60
2022-10-09T03:01:25.300Z,8.61
2022-10-09T03:02:31.137Z,8.59
2022-10-09T03:03:34.869Z,8.58
2022-10-09T03:04:38.634Z,8.54
2022-10-09T03:05:42.422Z,8.48
2022-10-09T03:06:46.990Z,8.40
2022-10-09T03:07:53.377Z,8.41
2022-10-09T03:08:56.845Z,8.39
2022-10-09T03:10:00.238Z,8.42
2022-10-09T03:11:05.357Z,8.37
2022-10-09T03:12:07.883Z,8.36
2022-10-09T03:13:11.635Z,8.37
2022-10-09T03:14:15.129Z,8.35
2022-10-09T03:15:17.902Z,8.25
2022-10-09T03:16:23.630Z,8.21
2022-10-09T03:17:27.978Z,8.17
2022-10-09T03:18:31.029Z,8.13
2022-10-09T03:19:34.648Z,8.12
2022-10-09T03:20:38.387Z,8.04
2022-10-09T03:21:43.748Z,8.02
2022-10-09T03:22:47.254Z,8.04
2022-10-09T03:23:51.803Z,8.03
2022-10-09T03:24:57.182Z,7.99
2022-10-09T03:26:01.215Z,8.03
2022-10-09T03:27:07.482Z,8.03
2022-10-09T03:28:10.854Z,8.03
2022-10-09T03:29:14.653Z,7.89
2022-10-09T03:30:18.577Z,7.80
2022-10-09T03:31:50.006Z,7.67
2022-10-09T03:32:31.169Z,7.64
2022-10-09T03:33:38.881Z,7.64
2022-10-09T03:34:42.195Z,7.58
2022-10-09T03:35:49.668Z,7.62
2022-10-09T03:36:53.184Z,7.67
2022-10-09T03:37:56.622Z,7.68
2022-10-09T03:39:00.193Z,7.70
2022-10-09T03:40:02.969Z,7.71
2022-10-09T03:41:05.839Z,7.74
2022-10-09T03:42:10.329Z,7.73
2022-10-09T03:43:12.960Z,7.72
2022-10-09T03:44:15.515Z,7.77
2022-10-09T03:45:19.345Z,7.76
2022-10-09T03:46:23.320Z,7.81
2022-10-09T03:47:27.331Z,7.79
2022-10-09T03:48:30.830Z,7.79
2022-10-09T03:49:34.294Z,7.75
2022-10-09T03:50:37.071Z,7.75
2022-10-09T03:51:40.616Z,7.75
2022-10-09T03:52:44.610Z,7.80
2022-10-09T03:53:47.894Z,7.84
2022-10-09T03:54:53.071Z,7.87
2022-10-09T03:55:56.472Z,7.89
2022-10-09T03:56:59.987Z,7.93
2022-10-09T03:58:04.005Z,7.94
2022-10-09T03:59:09.391Z,7.95
2022-10-09T04:00:13.107Z,7.94
2022-10-09T04:01:16.879Z,7.95
2022-10-09T04:02:20.715Z,7.95
2022-10-09T04:03:24.651Z,7.98
2022-10-09T04:04:27.344Z,8.02
2022-10-09T04:05:32.623Z,7.98
2022-10-09T04:06:36.127Z,8.03
2022-10-09T04:07:39.527Z,8.04
2022-10-09T04:08:47.419Z,8.05
2022-10-09T04:09:50.709Z,8.00
2022-10-09T04:10:55.893Z,7.98
2022-10-09T04:12:02.699Z,7.99
2022-10-09T04:13:06.904Z,8.03
2022-10-09T04:14:12.037Z,8.02
2022-10-09T04:15:15.687Z,8.02
2022-10-09T04:16:19.328Z,8.07
2022-10-09T04:17:22.347Z,8.07
2022-10-09T04:18:25.336Z,8.09
2022-10-09T04:19:28.845Z,8.13
2022-10-09T04:20:32.659Z,8.18
2022-10-09T04:21:36.067Z,8.19
2022-10-09T04:22:39.670Z,8.27
2022-10-09T04:23:42.946Z,8.30
2022-10-09T04:24:46.469Z,8.32
2022-10-09T04:25:50.707Z,8.33
2022-10-09T04:26:53.270Z,8.36
2022-10-09T04:27:56.497Z,8.37
2022-10-09T04:28:59.341Z,8.41
2022-10-09T04:30:02.730Z,8.40
2022-10-09T04:31:06.689Z,8.44
2022-10-09T04:32:13.096Z,8.46
2022-10-09T04:33:17.647Z,8.50
2022-10-09T04:34:21.243Z,8.46
2022-10-09T04:35:25.906Z,8.51
2022-10-09T04:36:29.307Z,8.57
2022-10-09T04:37:32.592Z,8.61
2022-10-09T04:38:37.288Z,8.68
2022-10-09T04:39:41.803Z,8.70
2022-10-09T04:41:00.248Z,8.71
2022-10-09T04:42:04.682Z,8.73
2022-10-09T04:43:07.259Z,8.76
2022-10-09T04:44:10.751Z,8.74
2022-10-09T04:45:13.629Z,8.78
2022-10-09T04:46:18.899Z,8.91
2022-10-09T04:47:22.203Z,9.00
2022-10-09T04:48:25.924Z,9.04
2022-10-09T04:49:28.706Z,9.05
2022-10-09T04:50:32.305Z,9.04
2022-10-09T04:51:35.850Z,9.05
2022-10-09T04:52:39.745Z,9.08
2022-10-09T04:53:43.662Z,9.14
2022-10-09T04:54:47.065Z,9.15
2022-10-09T04:55:51.405Z,9.23
2022-10-09T04:56:55.212Z,9.25
2022-10-09T04:57:58.644Z,9.36
2022-10-09T04:59:01.842Z,9.34
2022-10-09T05:00:07.234Z,9.50
2022-10-09T05:01:12.513Z,9.63
2022-10-09T05:02:15.338Z,9.69
2022-10-09T05:03:18.970Z,9.78
2022-10-09T05:04:22.268Z,9.82
2022-10-09T05:05:25.875Z,9.90
2022-10-09T05:06:29.274Z,9.94
2022-10-09T05:07:32.989Z,10.02
2022-10-09T05:08:37.527Z,10.11
2022-10-09T05:09:41.346Z,10.21
2022-10-09T05:10:45.686Z,10.27
2022-10-09T05:11:51.699Z,10.31
2022-10-09T05:12:56.772Z,10.37
2022-10-09T05:14:00.529Z,10.58
2022-10-09T05:15:05.846Z,10.76
2022-10-09T05:16:13.489Z,10.76
2022-10-09T05:17:19.648Z,10.79
2022-10-09T05:18:22.456Z,10.85
2022-10-09T05:19:25.228Z,10.92
2022-10-09T05:20:28.862Z,11.02
2022-10-09T05:21:32.445Z,11.21
2022-10-09T05:22:35.011Z,11.33
2022-10-09T05:23:38.618Z,11.40
2022-10-09T05:24:41.942Z,11.47
2022-10-09T05:25:47.289Z,11.50
2022-10-09T05:26:51.734Z,11.54
2022-10-09T05:27:55.449Z,11.70
2022-10-09T05:28:59.067Z,11.92
2022-10-09T05:30:01.522Z,12.05
2022-10-09T05:31:04.399Z,12.19
2022-10-09T05:32:08.091Z,12.79
2022-10-09T05:33:12.251Z,13.51
2022-10-09T05:34:15.965Z,13.77
2022-10-09T05:35:20.400Z,13.57
2022-10-09T05:36:23.916Z,13.29
2022-10-09T05:37:28.611Z,13.23
2022-10-09T05:38:33.329Z,13.29
2022-10-09T05:39:36.834Z,13.50
2022-10-09T05:40:41.268Z,13.31
2022-10-09T05:41:45.097Z,13.13
2022-10-09T05:42:48.982Z,13.02
2022-10-09T05:43:52.840Z,12.90
2022-10-09T05:44:59.264Z,12.93
2022-10-09T05:46:09.710Z,12.92
2022-10-09T05:47:15.464Z,12.92
2022-10-09T05:48:18.974Z,13.00
2022-10-09T05:49:22.792Z,13.12
2022-10-09T05:50:25.357Z,13.33
2022-10-09T05:51:32.104Z,13.43
2022-10-09T05:52:36.742Z,13.33
2022-10-09T05:53:42.766Z,13.36
2022-10-09T05:54:46.199Z,13.62
2022-10-09T05:55:49.679Z,13.79
2022-10-09T05:56:54.328Z,13.95
2022-10-09T05:57:57.726Z,14.03
2022-10-09T05:59:03.202Z,14.20
2022-10-09T06:00:07.771Z,14.13
2022-10-09T06:01:13.069Z,14.24
2022-10-09T06:02:16.921Z,14.23
2022-10-09T06:03:22.074Z,14.17
2022-10-09T06:04:26.264Z,14.24
2022-10-09T06:05:29.809Z,14.23
2022-10-09T06:06:35.373Z,14.34
2022-10-09T06:07:39.716Z,14.41
2022-10-09T06:08:42.977Z,14.56
2022-10-09T06:09:49.140Z,14.88
2022-10-09T06:10:52.017Z,14.87
2022-10-09T06:11:55.916Z,14.87
2022-10-09T06:13:00.372Z,14.90
2022-10-09T06:14:08.154Z,14.98
2022-10-09T06:15:13.325Z,15.06
2022-10-09T06:16:17.706Z,15.21
2022-10-09T06:17:21.319Z,15.23
2022-10-09T06:18:24.704Z,15.07
2022-10-09T06:19:30.483Z,15.27
2022-10-09T06:20:34.099Z,15.57
2022-10-09T06:21:37.687Z,15.94
2022-10-09T06:22:41.214Z,16.45
2022-10-09T06:23:44.709Z,16.66
2022-10-09T06:24:48.330Z,16.68
2022-10-09T06:25:53.701Z,16.51
2022-10-09T06:26:58.175Z,16.15
2022-10-09T06:28:01.547Z,15.98
2022-10-09T06:29:11.225Z,15.53
2022-10-09T06:30:15.034Z,15.43
2022-10-09T06:31:18.890Z,15.51
2022-10-09T06:32:21.736Z,15.58
2022-10-09T06:33:26.278Z,15.59
2022-10-09T06:34:30.502Z,16.11
2022-10-09T06:35:35.910Z,16.69
2022-10-09T06:36:39.728Z,17.31
2022-10-09T06:37:43.262Z,17.17
2022-10-09T06:38:47.251Z,17.71
2022-10-09T06:39:50.557Z,17.97
2022-10-09T06:40:54.376Z,18.40
2022-10-09T06:41:57.350Z,19.57
2022-10-09T06:43:07.140Z,20.04
2022-10-09T06:44:16.662Z,20.13
2022-10-09T06:45:19.049Z,20.35
2022-10-09T06:46:24.259Z,20.89
2022-10-09T06:47:32.315Z,22.28
2022-10-09T06:48:39.375Z,23.88
2022-10-09T06:49:43.772Z,25.37
2022-10-09T06:50:47.396Z,25.86
2022-10-09T06:51:50.839Z,26.54
2022-10-09T06:52:54.341Z,27.44
2022-10-09T06:53:59.193Z,28.20
2022-10-09T06:55:02.605Z,27.71
2022-10-09T06:56:07.878Z,27.66
2022-10-09T06:57:12.539Z,27.98
2022-10-09T06:58:16.674Z,28.72
2022-10-09T06:59:20.268Z,29.36
2022-10-09T07:00:23.847Z,29.32
2022-10-09T07:01:37.923Z,30.12
2022-10-09T07:02:44.279Z,29.66
2022-10-09T07:03:49.203Z,30.29
2022-10-09T07:04:53.043Z,30.68
2022-10-09T07:06:01.155Z,30.59
2022-10-09T07:07:04.648Z,30.72
2022-10-09T07:08:07.944Z,31.30
2022-10-09T07:09:13.236Z,30.04
2022-10-09T07:10:20.569Z,30.68
2022-10-09T07:11:25.364Z,30.63
2022-10-09T07:12:29.288Z,30.24
2022-10-09T07:13:33.210Z,30.31
2022-10-09T07:14:37.655Z,29.58
2022-10-09T07:15:42.969Z,29.94
2022-10-09T07:16:48.942Z,30.13
2022-10-09T07:17:53.996Z,30.42
2022-10-09T07:18:57.628Z,31.27
2022-10-09T07:20:00.782Z,31.93
2022-10-09T07:21:06.204Z,31.37
2022-10-09T07:22:12.948Z,29.81
2022-10-09T07:23:16.765Z,29.05
2022-10-09T07:24:23.090Z,29.31
2022-10-09T07:25:26.599Z,30.08
2022-10-09T07:26:32.920Z,30.77
2022-10-09T07:27:36.634Z,31.58
2022-10-09T07:28:41.061Z,32.17
2022-10-09T07:29:45.410Z,32.99
2022-10-09T07:30:49.469Z,33.40
2022-10-09T07:31:53.161Z,33.29
2022-10-09T07:32:59.822Z,32.48
2022-10-09T07:34:03.715Z,31.76
2022-10-09T07:35:07.750Z,30.91
2022-10-09T07:36:12.695Z,31.09
2022-10-09T07:37:19.911Z,31.37
2022-10-09T07:38:23.416Z,30.35
2022-10-09T07:39:26.570Z,29.50
2022-10-09T07:40:30.844Z,28.10
2022-10-09T07:41:34.733Z,27.10
2022-10-09T07:42:38.226Z,26.62
2022-10-09T07:43:41.211Z,26.42
2022-10-09T07:44:46.919Z,26.98
2022-10-09T07:45:50.479Z,28.59
2022-10-09T07:47:01.159Z,29.74
2022-10-09T07:48:05.574Z,31.22
2022-10-09T07:49:09.293Z,31.37
2022-10-09T07:50:12.718Z,31.82
2022-10-09T07:51:18.289Z,32.09
2022-10-09T07:52:20.842Z,33.05
2022-10-09T07:53:24.392Z,33.28
2022-10-09T07:54:27.585Z,32.93
2022-10-09T07:55:31.265Z,33.66
2022-10-09T07:56:39.600Z,34.39
2022-10-09T07:57:44.008Z,34.38
2022-10-09T07:58:59.931Z,33.42
2022-10-09T08:00:03.801Z,33.40
2022-10-09T08:01:10.790Z,33.33
2022-10-09T08:02:14.500Z,32.92
2022-10-09T08:03:18.975Z,33.39
2022-10-09T08:04:22.583Z,32.96
2022-10-09T08:05:26.937Z,33.35
2022-10-09T08:06:33.885Z,33.66
2022-10-09T08:07:37.277Z,33.75
2022-10-09T08:08:43.922Z,32.33
2022-10-09T08:09:47.692Z,31.59
2022-10-09T08:10:50.927Z,30.42
2022-10-09T08:11:54.431Z,30.18
2022-10-09T08:12:57.586Z,30.32
2022-10-09T08:14:01.034Z,31.11
2022-10-09T08:15:09.577Z,32.45
2022-10-09T08:16:15.038Z,33.32
2022-10-09T08:17:19.218Z,33.35
2022-10-09T08:18:22.562Z,32.54
2022-10-09T08:19:26.078Z,31.43
2022-10-09T08:20:32.394Z,30.64
2022-10-09T08:21:36.106Z,30.24
2022-10-09T08:22:39.611Z,30.45
2022-10-09T08:23:44.172Z,29.98
2022-10-09T08:24:48.615Z,30.07
2022-10-09T08:25:52.111Z,30.71
2022-10-09T08:26:55.511Z,31.23
2022-10-09T08:27:59.339Z,30.70
2022-10-09T08:29:04.730Z,29.86
2022-10-09T08:30:09.484Z,29.33
2022-10-09T08:31:14.125Z,29.56
2022-10-09T08:32:17.748Z,29.26
2022-10-09T08:33:22.827Z,29.24
2022-10-09T08:34:26.428Z,29.37
2022-10-09T08:35:33.712Z,28.72
2022-10-09T08:36:34.797Z,28.15
2022-10-09T08:37:39.970Z,28.11
2022-10-09T08:38:48.211Z,27.50
2022-10-09T08:39:50.094Z,27.11
2022-10-09T08:40:58.339Z,26.93
2022-10-09T08:42:05.972Z,26.61
2022-10-09T08:43:11.284Z,26.09
2022-10-09T08:44:22.832Z,25.68
2022-10-09T08:45:26.534Z,25.15
2022-10-09T08:46:32.579Z,24.45
2022-10-09T08:47:40.239Z,24.35
2022-10-09T08:48:46.466Z,24.52
2022-10-09T08:49:57.067Z,24.46
2022-10-09T08:51:04.544Z,24.23
2022-10-09T08:52:09.196Z,23.94
2022-10-09T08:53:16.149Z,23.86
2022-10-09T08:54:24.561Z,23.74
2022-10-09T08:55:32.331Z,23.68
2022-10-09T08:56:36.156Z,23.12
2022-10-09T08:57:40.092Z,22.86
2022-10-09T08:58:44.685Z,22.72
2022-10-09T08:59:47.854Z,22.95
2022-10-09T09:00:55.409Z,23.16
2022-10-09T09:02:02.014Z,23.69
2022-10-09T09:03:10.200Z,23.92
2022-10-09T09:04:20.398Z,24.06
2022-10-09T09:05:27.084Z,24.35
2022-10-09T09:06:38.031Z,24.31
2022-10-09T09:07:43.804Z,24.38
2022-10-09T09:08:57.650Z,24.36
2022-10-09T09:10:05.018Z,24.86
2022-10-09T09:11:12.494Z,25.06
2022-10-09T09:12:19.132Z,24.85
2022-10-09T09:13:41.986Z,24.59
2022-10-09T09:14:52.565Z,24.75
2022-10-09T09:16:00.950Z,24.92
2022-10-09T09:17:10.431Z,24.48
2022-10-09T09:18:20.331Z,23.96
2022-10-09T09:19:27.256Z,24.28
2022-10-09T09:20:52.013Z,24.45
2022-10-09T09:21:55.794Z,24.43
2022-10-09T09:23:00.239Z,24.43
2022-10-09T09:24:05.299Z,23.99
2022-10-09T09:25:19.354Z,24.18
2022-10-09T09:26:23.068Z,24.03
2022-10-09T09:27:33.174Z,23.92
2022-10-09T09:28:36.931Z,24.11
2022-10-09T09:29:50.135Z,24.36
2022-10-09T09:30:56.467Z,24.03
2022-10-09T09:32:01.910Z,23.62
2022-10-09T09:33:23.164Z,23.73
2022-10-09T09:34:30.425Z,23.88
2022-10-09T09:35:44.379Z,24.12
2022-10-09T09:36:49.551Z,24.24
2022-10-09T09:37:57.270Z,24.50
2022-10-09T09:40:36.847Z,24.78
2022-10-09T09:41:21.784Z,24.43
2022-10-09T09:42:26.409Z,24.27
2022-10-09T09:43:30.123Z,24.02
2022-10-09T09:44:35.751Z,23.93
2022-10-09T09:45:39.745Z,24.35
2022-10-09T09:46:47.419Z,24.22
2022-10-09T09:48:02.841Z,23.93
2022-10-09T09:49:17.405Z,24.15
2022-10-09T09:50:46.931Z,23.74
2022-10-09T09:51:37.070Z,23.63
2022-10-09T09:52:42.762Z,24.03
2022-10-09T09:53:47.929Z,24.16
2022-10-09T09:54:50.712Z,24.33
2022-10-09T09:55:55.054Z,23.52
2022-10-09T09:57:12.832Z,23.09
2022-10-09T09:58:08.830Z,22.86
2022-10-09T09:59:28.756Z,22.67
2022-10-09T10:00:31.368Z,22.86
2022-10-09T10:01:38.054Z,22.93
2022-10-09T10:02:41.975Z,22.51
2022-10-09T10:03:48.312Z,22.31
2022-10-09T10:04:54.476Z,22.52
2022-10-09T10:06:00.849Z,22.33
2022-10-09T10:07:05.962Z,22.45
2022-10-09T10:08:20.403Z,22.74
2022-10-09T10:09:25.622Z,22.73
2022-10-09T10:10:29.186Z,22.63
2022-10-09T10:11:35.491Z,22.41
2022-10-09T10:12:42.388Z,22.56
2022-10-09T10:13:51.182Z,22.71
2022-10-09T10:14:58.142Z,23.00
2022-10-09T10:16:02.007Z,23.19
2022-10-09T10:17:06.413Z,23.41
2022-10-09T10:18:16.584Z,23.38
2022-10-09T10:19:21.980Z,23.54
2022-10-09T10:20:29.444Z,23.24
2022-10-09T10:21:43.811Z,22.70
2022-10-09T10:22:48.283Z,22.51
2022-10-09T10:24:06.189Z,22.93
2022-10-09T10:25:13.961Z,22.72
2022-10-09T10:26:30.837Z,22.81
2022-10-09T10:27:41.036Z,22.97
2022-10-09T10:28:47.662Z,22.59
2022-10-09T10:29:52.842Z,22.37
2022-10-09T10:30:59.874Z,22.14
2022-10-09T10:32:08.253Z,22.38
2022-10-09T10:33:19.778Z,22.61
2022-10-09T10:34:27.752Z,22.59
2022-10-09T10:36:36.850Z,22.74
2022-10-09T10:37:52.056Z,22.79
2022-10-09T10:38:58.550Z,22.86
2022-10-09T10:40:02.824Z,22.83
2022-10-09T10:41:14.798Z,22.89
2022-10-09T10:42:36.571Z,22.65
2022-10-09T10:43:43.209Z,22.61
2022-10-09T10:44:50.056Z,22.63
2022-10-09T10:46:02.065Z,22.80
2022-10-09T10:47:08.149Z,22.73
2022-10-09T10:48:15.937Z,22.61
2022-10-09T10:49:20.370Z,22.61
2022-10-09T10:50:25.337Z,22.60
2022-10-09T10:51:47.121Z,22.65
2022-10-09T10:53:03.266Z,22.84
2022-10-09T10:54:08.555Z,22.67
2022-10-09T10:55:29.817Z,22.55
2022-10-09T10:56:41.771Z,22.26
2022-10-09T10:58:04.088Z,21.87
2022-10-09T10:59:19.489Z,21.69
2022-10-09T11:00:24.352Z,21.88
2022-10-09T11:01:37.571Z,22.08
2022-10-09T11:02:46.012Z,22.30
2022-10-09T11:03:50.963Z,22.55
2022-10-09T11:05:01.884Z,22.03
2022-10-09T11:06:06.556Z,21.89
2022-10-09T11:07:23.171Z,22.02
2022-10-09T11:08:34.858Z,22.34
2022-10-09T11:09:42.944Z,22.23
2022-10-09T11:11:06.098Z,22.36
2022-10-09T11:12:30.169Z,22.43
2022-10-09T11:13:30.434Z,22.06
2022-10-09T11:14:37.711Z,22.25
2022-10-09T11:15:44.627Z,22.35
2022-10-09T11:16:55.479Z,22.38
2022-10-09T11:18:14.335Z,22.33
2022-10-09T11:19:22.161Z,22.16
2022-10-09T11:20:32.105Z,22.31
2022-10-09T11:23:16.927Z,22.55
2022-10-09T11:24:23.810Z,22.30
2022-10-09T11:25:29.147Z,22.41
2022-10-09T11:26:47.495Z,22.26
2022-10-09T11:27:53.931Z,21.78
2022-10-09T11:29:05.159Z,22.11
2022-10-09T11:30:13.457Z,22.27
2022-10-09T11:31:18.826Z,22.48
2022-10-09T11:32:24.239Z,22.45
2022-10-09T11:33:38.335Z,22.36
2022-10-09T11:34:49.499Z,22.29
2022-10-09T11:35:59.818Z,22.19
2022-10-09T11:37:05.870Z,22.15
2022-10-09T11:38:28.127Z,22.32
2022-10-09T11:39:36.351Z,22.31
2022-10-09T11:40:41.519Z,22.20
2022-10-09T11:41:48.642Z,22.23
2022-10-09T11:42:54.891Z,22.24
2022-10-09T11:44:06.795Z,22.14
2022-10-09T11:45:12.150Z,22.27
2022-10-09T11:46:33.451Z,22.43
2022-10-09T11:47:53.158Z,22.46
2022-10-09T11:49:01.088Z,22.40
2022-10-09T11:50:21.075Z,22.37
2022-10-09T11:51:32.229Z,22.38
2022-10-09T11:52:46.146Z,22.22
2022-10-09T11:53:51.603Z,22.13
2022-10-09T11:54:55.837Z,22.19
2022-10-09T11:56:04.002Z,22.17
2022-10-09T11:57:09.594Z,22.12
2022-10-09T11:58:26.691Z,22.22
2022-10-09T11:59:32.074Z,22.39
2022-10-09T12:00:36.938Z,22.23
2022-10-09T12:01:42.160Z,22.26
2022-10-09T12:02:48.408Z,22.35
2022-10-09T12:04:10.537Z,22.36
2022-10-09T12:05:18.322Z,22.38
2022-10-09T12:06:25.766Z,22.45
2022-10-09T12:07:31.695Z,22.50
2022-10-09T12:08:35.445Z,22.48
2022-10-09T12:09:40.692Z,22.56
2022-10-09T12:10:52.663Z,22.56
2022-10-09T12:12:00.802Z,22.45
2022-10-09T12:13:08.574Z,22.48
2022-10-09T12:14:13.169Z,22.42
2022-10-09T12:15:24.650Z,22.43
2022-10-09T12:16:42.553Z,22.45
2022-10-09T12:17:48.768Z,22.21
2022-10-09T12:18:54.487Z,22.16
2022-10-09T12:20:01.223Z,22.13
2022-10-09T12:21:07.033Z,22.04
2022-10-09T12:22:29.433Z,22.02
2022-10-09T12:23:33.686Z,21.99
2022-10-09T12:24:40.431Z,21.86
2022-10-09T12:25:45.597Z,21.79
2022-10-09T12:26:50.880Z,21.83
2022-10-09T12:27:55.350Z,21.78
2022-10-09T12:29:00.604Z,21.70
2022-10-09T12:30:04.741Z,21.55
2022-10-09T12:31:12.068Z,21.45
2022-10-09T12:32:20.204Z,21.53
2022-10-09T12:33:33.006Z,21.44
2022-10-09T12:34:41.107Z,21.41
2022-10-09T12:35:46.498Z,21.39
2022-10-09T12:36:50.618Z,21.44
2022-10-09T12:37:55.064Z,21.57
2022-10-09T12:38:58.754Z,21.63
2022-10-09T12:40:11.155Z,21.56
2022-10-09T12:41:20.217Z,21.47
2022-10-09T12:42:23.016Z,21.49
2022-10-09T12:43:27.246Z,21.44
2022-10-09T12:44:36.944Z,21.50
2022-10-09T12:45:42.797Z,21.52
2022-10-09T12:46:47.677Z,21.44
2022-10-09T12:47:52.861Z,21.26
2022-10-09T12:48:56.543Z,21.15
2022-10-09T12:50:01.105Z,20.88
2022-10-09T12:51:06.907Z,20.63
2022-10-09T12:52:15.831Z,20.65
2022-10-09T12:53:21.427Z,20.69
2022-10-09T12:54:24.722Z,20.61
2022-10-09T12:55:31.570Z,20.59
2022-10-09T12:56:38.732Z,20.66
2022-10-09T12:57:42.756Z,20.46
2022-10-09T12:58:46.251Z,20.55
2022-10-09T12:59:51.219Z,20.71
2022-10-09T13:00:57.316Z,20.80
2022-10-09T13:02:00.032Z,20.56
2022-10-09T13:03:03.475Z,20.44
2022-10-09T13:04:08.039Z,20.45
2022-10-09T13:05:12.306Z,20.45
2022-10-09T13:06:17.901Z,20.26
2022-10-09T13:07:22.553Z,20.21
2022-10-09T13:08:31.270Z,20.19
2022-10-09T13:09:36.560Z,19.87
2022-10-09T13:10:39.891Z,19.50
2022-10-09T13:11:48.234Z,19.48
2022-10-09T13:12:56.720Z,19.60
2022-10-09T13:14:01.327Z,19.49
2022-10-09T13:15:07.673Z,19.38
2022-10-09T13:16:11.158Z,19.29
2022-10-09T13:17:26.359Z,19.16
2022-10-09T13:18:29.970Z,19.28
2022-10-09T13:19:35.201Z,19.48
2022-10-09T13:20:37.711Z,19.40
2022-10-09T13:21:40.730Z,19.13
2022-10-09T13:22:55.006Z,18.94
2022-10-09T13:24:11.635Z,18.77
2022-10-09T13:25:14.616Z,18.51
2022-10-09T13:26:23.750Z,18.28
2022-10-09T13:27:28.239Z,18.12
2022-10-09T13:28:31.665Z,17.91
2022-10-09T13:29:36.278Z,17.99
2022-10-09T13:30:39.937Z,17.97
2022-10-09T13:31:44.037Z,17.76
2022-10-09T13:32:47.507Z,17.59
2022-10-09T13:33:51.639Z,17.59
2022-10-09T13:34:58.594Z,17.43
2022-10-09T13:36:01.773Z,17.43
2022-10-09T13:37:04.677Z,17.18
2022-10-09T13:38:10.300Z,17.22
2022-10-09T13:39:17.100Z,17.07
2022-10-09T13:40:25.516Z,17.14
2022-10-09T13:41:28.761Z,17.00
2022-10-09T13:42:34.916Z,16.58
2022-10-09T13:43:39.260Z,16.64
2022-10-09T13:44:42.678Z,16.71
2022-10-09T13:45:47.053Z,16.80
2022-10-09T13:46:50.227Z,16.91
2022-10-09T13:47:52.646Z,16.72
2022-10-09T13:48:55.958Z,16.78
2022-10-09T13:49:59.775Z,16.65
2022-10-09T13:51:02.654Z,16.22
2022-10-09T13:52:05.943Z,16.17
2022-10-09T13:53:09.074Z,16.10
2022-10-09T13:54:13.589Z,16.15
2022-10-09T13:55:17.606Z,16.15
2022-10-09T13:56:22.063Z,16.02
2022-10-09T13:57:26.132Z,15.83
2022-10-09T13:58:29.594Z,15.99
2022-10-09T13:59:32.575Z,15.85
2022-10-09T14:00:37.544Z,15.92
2022-10-09T14:01:42.963Z,15.84
2022-10-09T14:02:46.639Z,15.72
2022-10-09T14:03:52.064Z,15.53
2022-10-09T14:04:55.414Z,15.41
2022-10-09T14:05:59.349Z,15.17
2022-10-09T14:07:02.748Z,15.03
2022-10-09T14:08:07.402Z,14.97
2022-10-09T14:09:13.162Z,15.11
2022-10-09T14:10:19.223Z,15.05
2022-10-09T14:11:23.623Z,15.14
2022-10-09T14:12:26.725Z,15.15
2022-10-09T14:13:30.680Z,15.02
2022-10-09T14:14:33.434Z,15.00
2022-10-09T14:15:40.707Z,14.88
2022-10-09T14:16:44.110Z,14.65
2022-10-09T14:17:47.246Z,14.86
2022-10-09T14:18:50.912Z,14.89
2022-10-09T14:19:55.235Z,14.95
2022-10-09T14:20:58.434Z,14.87
2022-10-09T14:22:01.949Z,14.90
2022-10-09T14:23:04.219Z,14.94
2022-10-09T14:24:09.574Z,14.87
2022-10-09T14:25:13.928Z,14.91